createdAt,value
2024-03-21T00:01:22.641Z,21.4
2024-03-21T00:06:24.992Z,21.4
2024-03-21T00:11:27.304Z,21.4
2024-03-21T00:16:29.479Z,21.4
2024-03-21T00:21:31.738Z,21.3
2024-03-21T00:26:33.933Z,21.3
2024-03-21T00:31:36.066Z,21.3
2024-03-21T00:36:38.188Z,21.3
2024-03-21T00:41:40.328Z,21.3
2024-03-21T00:46:42.548Z,21.3
2024-03-21T00:51:44.696Z,21.2
2024-03-21T00:56:46.828Z,21.2
2024-03-21T01:01:48.999Z,21.2
2024-03-21T01:06:51.117Z,21.2
2024-03-21T01:11:53.261Z,21.2
2024-03-21T01:16:55.541Z,21.1
2024-03-21T01:21:57.693Z,21.1
2024-03-21T01:26:59.826Z,21.1
2024-03-21T01:32:02.113Z,21
2024-03-21T01:37:04.251Z,21
2024-03-21T01:42:06.388Z,21
2024-03-21T01:47:08.541Z,21
2024-03-21T01:52:10.667Z,21
2024-03-21T01:57:12.820Z,21
2024-03-21T02:02:15.122Z,21
2024-03-21T02:07:17.245Z,20.9
2024-03-21T02:12:19.547Z,20.9
2024-03-21T02:17:21.721Z,20.9
2024-03-21T02:22:26.772Z,20.9
2024-03-21T02:27:26.167Z,20.9
2024-03-21T02:32:28.331Z,20.9
2024-03-21T02:37:30.522Z,20.8
2024-03-21T02:42:32.856Z,20.8
2024-03-21T02:47:35.016Z,20.8
2024-03-21T02:52:37.206Z,20.8
2024-03-21T02:57:39.351Z,20.8
2024-03-21T03:02:41.607Z,20.8
2024-03-21T03:07:43.757Z,20.9
2024-03-21T03:12:45.895Z,20.9
2024-03-21T03:17:48.264Z,20.8
2024-03-21T03:22:50.487Z,20.8
2024-03-21T03:27:52.601Z,20.8
2024-03-21T03:32:54.906Z,20.8
2024-03-21T03:37:57.042Z,20.8
2024-03-21T03:42:59.310Z,20.7
2024-03-21T03:48:01.487Z,20.7
2024-03-21T03:53:03.677Z,20.7
2024-03-21T03:58:05.939Z,20.7
2024-03-21T04:03:08.119Z,20.7
2024-03-21T04:08:10.318Z,20.6
2024-03-21T04:13:12.555Z,20.6
2024-03-21T04:18:14.732Z,20.6
2024-03-21T04:23:16.863Z,20.6
2024-03-21T04:28:19.095Z,20.6
2024-03-21T04:33:21.286Z,20.6
2024-03-21T04:38:31.904Z,20.6
2024-03-21T04:43:25.707Z,20.5
2024-03-21T04:48:27.875Z,20.5
2024-03-21T04:53:30.111Z,20.5
2024-03-21T04:58:32.275Z,20.5
2024-03-21T05:03:34.638Z,20.4
2024-03-21T05:08:36.929Z,20.4
2024-03-21T05:13:39.095Z,20.4
2024-03-21T05:18:41.262Z,20.4
2024-03-21T05:23:43.443Z,20.3
2024-03-21T05:28:45.602Z,20.3
2024-03-21T05:33:47.890Z,20.3
2024-03-21T05:38:50.110Z,20.3
2024-03-21T05:43:52.283Z,20.3
2024-03-21T05:48:54.593Z,20.3
2024-03-21T05:53:56.658Z,20.3
2024-03-21T05:58:58.813Z,20.3
2024-03-21T06:04:01.003Z,20.4
2024-03-21T06:09:03.108Z,20.6
2024-03-21T06:14:05.403Z,20.8
2024-03-21T06:19:07.651Z,21.1
2024-03-21T06:24:09.810Z,21.3
2024-03-21T06:29:11.892Z,21.6
2024-03-21T06:34:14.343Z,21.8
2024-03-21T06:39:16.492Z,22
2024-03-21T06:44:18.617Z,22.1
2024-03-21T06:49:20.956Z,22.2
2024-03-21T06:54:23.095Z,22.3
2024-03-21T06:59:25.234Z,22.3
2024-03-21T07:04:27.406Z,22.4
2024-03-21T07:09:29.714Z,22.4
2024-03-21T07:14:31.878Z,22.4
2024-03-21T07:19:34.092Z,22.5
2024-03-21T07:24:36.245Z,22.5
2024-03-21T07:29:38.374Z,22.5
2024-03-21T07:34:40.523Z,22.5
2024-03-21T07:39:42.652Z,22.5
2024-03-21T07:44:44.948Z,22.5
2024-03-21T07:49:47.126Z,22.4
2024-03-21T07:54:49.244Z,22.4
2024-03-21T07:59:51.496Z,22.4
2024-03-21T08:04:53.659Z,22.3
2024-03-21T08:09:55.797Z,22.3
2024-03-21T08:14:57.968Z,22.3
2024-03-21T08:20:00.200Z,22.3
2024-03-21T08:25:02.440Z,22.2
2024-03-21T08:30:04.613Z,22.2
2024-03-21T08:35:06.783Z,22.2
2024-03-21T08:40:08.977Z,22.1
2024-03-21T08:45:11.128Z,22.1
2024-03-21T08:50:13.270Z,22
2024-03-21T08:55:15.642Z,22
2024-03-21T09:00:17.797Z,21.9
2024-03-21T09:05:20.037Z,21.9
2024-03-21T09:10:22.349Z,21.8
2024-03-21T09:15:24.563Z,21.8
2024-03-21T09:20:26.754Z,21.7
2024-03-21T09:25:28.784Z,21.7
2024-03-21T09:30:31.017Z,21.7
2024-03-21T09:35:33.202Z,21.7
2024-03-21T09:40:35.329Z,21.7
2024-03-21T09:45:37.590Z,21.6
2024-03-21T09:50:39.742Z,21.6
2024-03-21T09:55:41.872Z,21.5
2024-03-21T10:00:44.128Z,21.5
2024-03-21T10:05:46.317Z,21.5
2024-03-21T10:10:48.421Z,21.5
2024-03-21T10:15:50.564Z,21.4
2024-03-21T10:20:52.715Z,21.4
2024-03-21T10:25:54.936Z,21.4
2024-03-21T10:30:57.088Z,21.4
2024-03-21T10:35:59.360Z,21.3
2024-03-21T10:41:01.601Z,21.3
2024-03-21T10:46:03.754Z,21.3
2024-03-21T10:51:06.106Z,21.2
2024-03-21T10:56:08.262Z,21.2
2024-03-21T11:01:10.395Z,21.2
2024-03-21T11:06:12.552Z,21.2
2024-03-21T11:11:14.725Z,21.1
2024-03-21T11:16:20.043Z,21.1
2024-03-21T11:21:22.235Z,21.1
2024-03-21T11:26:24.335Z,21.1
2024-03-21T11:31:26.472Z,21.1
2024-03-21T11:36:28.652Z,21.1
2024-03-21T11:41:30.750Z,21.1
2024-03-21T11:46:33.108Z,21.1
2024-03-21T11:51:35.278Z,21.1
2024-03-21T11:56:37.480Z,21.1
2024-03-21T12:01:39.683Z,21.1
2024-03-21T12:06:41.896Z,21.1
2024-03-21T12:11:44.003Z,21.1
2024-03-21T12:16:46.271Z,21.1
2024-03-21T12:21:48.443Z,21.1
2024-03-21T12:26:50.778Z,21
2024-03-21T12:31:52.930Z,21
2024-03-21T12:36:55.154Z,21
2024-03-21T12:41:57.486Z,21
2024-03-21T12:46:59.701Z,21
2024-03-21T12:52:01.861Z,20.9
2024-03-21T12:57:04.007Z,20.9
2024-03-21T13:02:06.154Z,20.9
2024-03-21T13:07:08.542Z,20.9
2024-03-21T13:12:10.757Z,20.9
2024-03-21T13:17:12.945Z,21
2024-03-21T13:22:15.105Z,21
2024-03-21T13:27:17.259Z,21
2024-03-21T13:32:19.401Z,21
2024-03-21T13:37:21.563Z,21
2024-03-21T13:42:23.704Z,21
2024-03-21T13:47:25.961Z,21
2024-03-21T13:52:28.120Z,21
2024-03-21T13:57:30.264Z,21
2024-03-21T14:02:32.538Z,21
2024-03-21T14:07:34.724Z,21
2024-03-21T14:12:36.852Z,21
2024-03-21T14:17:39.217Z,21.2
2024-03-21T14:22:41.388Z,21.2
2024-03-21T14:27:43.532Z,21.3
2024-03-21T14:32:45.762Z,21.3
2024-03-21T14:37:48.066Z,21.3
2024-03-21T14:42:50.221Z,21.1
2024-03-21T14:47:52.381Z,21
2024-03-21T14:52:54.832Z,20.9
2024-03-21T14:57:56.752Z,20.9
2024-03-21T15:02:58.935Z,20.9
2024-03-21T15:08:01.082Z,20.9
2024-03-21T15:13:03.436Z,20.8
2024-03-21T15:18:05.579Z,20.8
2024-03-21T15:23:07.891Z,20.8
2024-03-21T15:28:10.042Z,20.8
2024-03-21T15:33:12.344Z,20.8
2024-03-21T15:38:14.524Z,20.7
2024-03-21T15:43:16.666Z,20.7
2024-03-21T15:48:18.929Z,20.7
2024-03-21T15:53:21.138Z,20.7
2024-03-21T15:58:23.253Z,20.7
2024-03-21T16:03:25.492Z,20.8
2024-03-21T16:08:27.838Z,20.8
2024-03-21T16:13:29.967Z,20.8
2024-03-21T16:18:32.288Z,20.8
2024-03-21T16:23:34.459Z,20.8
2024-03-21T16:28:36.574Z,20.8
2024-03-21T16:33:38.816Z,20.8
2024-03-21T16:38:41.025Z,20.8
2024-03-21T16:43:43.243Z,20.8
2024-03-21T16:48:45.419Z,20.9
2024-03-21T16:53:47.578Z,20.9
2024-03-21T16:58:49.689Z,21
2024-03-21T17:03:51.849Z,21.1
2024-03-21T17:08:54.048Z,21.2
2024-03-21T17:13:56.295Z,21.4
2024-03-21T17:18:58.458Z,21.6
2024-03-21T17:24:00.637Z,21.8
2024-03-21T17:29:02.837Z,21.9
2024-03-21T17:34:05.017Z,22.1
2024-03-21T17:39:07.180Z,22.2
2024-03-21T17:44:09.314Z,22.2
2024-03-21T17:49:11.441Z,22.3
2024-03-21T17:54:13.820Z,22.4
2024-03-21T17:59:20.284Z,22.4
2024-03-21T18:04:18.269Z,22.4
2024-03-21T18:09:20.414Z,22.4
2024-03-21T18:14:22.589Z,22.5
2024-03-21T18:19:24.703Z,22.5
2024-03-21T18:24:26.851Z,22.5
2024-03-21T18:29:29.146Z,22.5
2024-03-21T18:34:31.306Z,22.5
2024-03-21T18:39:33.666Z,22.5
2024-03-21T18:44:35.807Z,22.5
2024-03-21T18:49:38.123Z,22.5
2024-03-21T18:54:40.385Z,22.4
2024-03-21T18:59:42.523Z,22.4
2024-03-21T19:04:44.912Z,22.3
2024-03-21T19:09:47.108Z,22.3
2024-03-21T19:14:49.328Z,22.3
2024-03-21T19:19:51.626Z,22.3
2024-03-21T19:24:53.788Z,22.3
2024-03-21T19:29:55.927Z,22.3
2024-03-21T19:34:58.077Z,22.2
2024-03-21T19:40:00.247Z,22.2
2024-03-21T19:45:02.549Z,22.2
2024-03-21T19:50:04.704Z,22.2
2024-03-21T19:55:09.720Z,22.1
2024-03-21T20:00:11.960Z,22.1
2024-03-21T20:05:14.119Z,22.1
2024-03-21T20:10:16.283Z,22
2024-03-21T20:15:18.526Z,22
2024-03-21T20:20:20.732Z,22
2024-03-21T20:25:22.956Z,21.9
2024-03-21T20:30:25.216Z,21.9
2024-03-21T20:35:27.482Z,21.9
2024-03-21T20:40:29.625Z,21.8
2024-03-21T20:45:31.771Z,21.8
2024-03-21T20:50:34.034Z,21.8
2024-03-21T20:55:36.189Z,21.7
2024-03-21T21:00:38.571Z,21.7
2024-03-21T21:05:40.737Z,21.7
2024-03-21T21:10:42.908Z,21.6
2024-03-21T21:15:45.014Z,21.6
2024-03-21T21:20:47.160Z,21.6
2024-03-21T21:25:49.511Z,21.5
2024-03-21T21:30:51.662Z,21.5
2024-03-21T21:35:55.452Z,21.5
2024-03-21T21:40:56.084Z,21.4
2024-03-21T21:45:58.251Z,21.4
2024-03-21T21:51:00.397Z,21.4
2024-03-21T21:56:02.653Z,21.4
2024-03-21T22:01:04.853Z,21.3
2024-03-21T22:06:06.897Z,21.3
2024-03-21T22:11:09.251Z,21.3
2024-03-21T22:16:16.914Z,21.3
2024-03-21T22:21:13.711Z,21.3
2024-03-21T22:26:15.887Z,21.3
2024-03-21T22:31:18.013Z,21.2
2024-03-21T22:36:20.139Z,21.2
2024-03-21T22:41:23.134Z,21.2
2024-03-21T22:46:24.573Z,21.2
2024-03-21T22:51:26.751Z,21.2
2024-03-21T22:56:28.918Z,21.2
2024-03-21T23:01:31.111Z,21.2
2024-03-21T23:06:33.271Z,21.1
2024-03-21T23:11:35.554Z,21.1
2024-03-21T23:16:37.720Z,21.1
2024-03-21T23:21:39.880Z,21.1
2024-03-21T23:26:42.034Z,21
2024-03-21T23:31:44.159Z,21
2024-03-21T23:36:46.295Z,21
2024-03-21T23:41:48.489Z,21
2024-03-21T23:46:51.204Z,20.9
2024-03-21T23:51:53.511Z,20.9
2024-03-21T23:56:55.800Z,20.9
